Time,TemperatureF,DewpointF,PressureIn,WindDirection,WindDirectionDegrees,WindSpeedMPH,WindSpeedGustMPH,Humidity,HourlyPrecipIn,Conditions,Clouds,dailyrainin,SoftwareType,DateUTC
2013-07-27 00:00:00,79.9,73.2,29.91,NNE,24,3.0,4.0,80,0.00,,,0.12,Wunderground v.1.15,2013-07-27 05:00:00,
2013-07-27 00:10:00,79.7,73.3,29.91,NNE,24,3.0,3.0,81,0.00,,,0.00,Wunderground v.1.15,2013-07-27 05:10:00,
2013-07-27 00:15:00,79.6,73.3,29.91,NNE,17,2.0,3.0,81,0.00,,,0.00,Wunderground v.1.15,2013-07-27 05:15:00,
2013-07-27 00:20:00,79.5,73.2,29.91,NNE,15,2.0,2.0,81,0.00,,,0.00,Wunderground v.1.15,2013-07-27 05:20:00,
2013-07-27 00:25:00,79.4,73.1,29.91,North,11,2.0,2.0,81,0.00,,,0.00,Wunderground v.1.15,2013-07-27 05:25:00,
2013-07-27 00:30:00,79.4,73.4,29.91,North,5,1.0,5.0,82,0.00,,,0.00,Wunderground v.1.15,2013-07-27 05:30:00,
2013-07-27 00:40:00,79.4,73.4,29.91,North,9,5.0,7.0,82,0.00,,,0.00,Wunderground v.1.15,2013-07-27 05:40:00,
2013-07-27 00:45:00,79.5,73.5,29.91,North,5,6.0,7.0,82,0.00,,,0.00,Wunderground v.1.15,2013-07-27 05:45:00,
2013-07-27 00:50:00,79.5,73.5,29.91,NNE,15,6.0,9.0,82,0.00,,,0.00,Wunderground v.1.15,2013-07-27 05:50:00,
2013-07-27 00:55:00,79.4,73.1,29.92,NE,35,8.0,9.0,81,0.00,,,0.00,Wunderground v.1.15,2013-07-27 05:55:00,
2013-07-27 01:00:00,78.9,72.6,29.92,North,9,9.0,9.0,81,0.00,,,0.00,Wunderground v.1.15,2013-07-27 06:00:00,
2013-07-27 01:10:00,78.2,72.3,29.92,North,5,6.0,6.0,82,0.00,,,0.00,Wunderground v.1.15,2013-07-27 06:10:00,
2013-07-27 01:20:00,77.5,71.6,29.92,North,5,7.0,14.0,82,0.00,,,0.00,Wunderground v.1.15,2013-07-27 06:20:00,
2013-07-27 01:25:00,77.3,71.4,29.92,NNE,25,8.0,14.0,82,0.00,,,0.00,Wunderground v.1.15,2013-07-27 06:25:00,
2013-07-27 01:30:00,77.1,70.8,29.92,NNE,14,10.0,10.0,81,0.00,,,0.00,Wunderground v.1.15,2013-07-27 06:30:00,
2013-07-27 01:35:00,76.9,70.6,29.92,NNE,28,11.0,11.0,81,0.00,,,0.00,Wunderground v.1.15,2013-07-27 06:35:00,
2013-07-27 01:40:00,76.9,70.6,29.92,NE,51,9.0,9.0,81,0.00,,,0.00,Wunderground v.1.15,2013-07-27 06:40:00,
2013-07-27 01:50:00,76.7,70.4,29.92,NNE,12,7.0,7.0,81,0.00,,,0.00,Wunderground v.1.15,2013-07-27 06:50:00,
2013-07-27 01:55:00,76.8,70.5,29.92,NNE,15,7.0,11.0,81,0.00,,,0.00,Wunderground v.1.15,2013-07-27 06:55:00,
2013-07-27 02:00:00,76.7,70.4,29.92,North,5,7.0,11.0,81,0.00,,,0.00,Wunderground v.1.15,2013-07-27 07:00:00,
2013-07-27 02:10:00,76.6,70.7,29.92,NNE,24,7.0,7.0,82,0.00,,,0.00,Wunderground v.1.15,2013-07-27 07:10:00,
2013-07-27 02:15:00,76.6,70.7,29.92,North,350,7.0,9.0,82,0.00,,,0.00,Wunderground v.1.15,2013-07-27 07:15:00,
2013-07-27 02:20:00,76.4,70.1,29.92,NNE,17,7.0,8.0,81,0.00,,,0.00,Wunderground v.1.15,2013-07-27 07:20:00,
2013-07-27 02:30:00,76.3,70.0,29.92,NE,43,6.0,7.0,81,0.00,,,0.00,Wunderground v.1.15,2013-07-27 07:30:00,
2013-07-27 02:35:00,76.2,69.9,29.92,NNE,18,5.0,7.0,81,0.00,,,0.00,Wunderground v.1.15,2013-07-27 07:35:00,
2013-07-27 02:40:00,76.1,69.8,29.92,NNE,13,3.0,3.0,81,0.00,,,0.00,Wunderground v.1.15,2013-07-27 07:40:00,
2013-07-27 02:45:00,76.0,69.7,29.92,NNE,13,0.0,3.0,81,0.00,,,0.00,Wunderground v.1.15,2013-07-27 07:45:00,
2013-07-27 02:50:00,75.9,69.6,29.92,NNE,30,1.0,1.0,81,0.00,,,0.00,Wunderground v.1.15,2013-07-27 07:50:00,
2013-07-27 03:00:00,75.6,69.7,29.92,NNE,25,1.0,1.0,82,0.00,,,0.00,Wunderground v.1.15,2013-07-27 08:00:00,
2013-07-27 03:10:00,75.5,69.6,29.92,NNE,25,0.0,0.0,82,0.00,,,0.00,Wunderground v.1.15,2013-07-27 08:10:00,
2013-07-27 03:15:00,75.3,69.4,29.92,NNE,25,0.0,0.0,82,0.00,,,0.00,Wunderground v.1.15,2013-07-27 08:15:00,
2013-07-27 03:20:00,75.3,69.4,29.92,NNE,25,0.0,0.0,82,0.00,,,0.00,Wunderground v.1.15,2013-07-27 08:20:00,
2013-07-27 03:25:00,75.2,69.7,29.92,NNE,25,0.0,0.0,83,0.00,,,0.00,Wunderground v.1.15,2013-07-27 08:25:00,
2013-07-27 03:35:00,75.3,69.8,29.92,NNE,22,2.0,4.0,83,0.00,,,0.00,Wunderground v.1.15,2013-07-27 08:35:00,
2013-07-27 03:40:00,75.4,69.9,29.92,NNE,15,3.0,3.0,83,0.00,,,0.00,Wunderground v.1.15,2013-07-27 08:40:00,
2013-07-27 03:45:00,75.3,69.8,29.92,NNE,15,3.0,4.0,83,0.00,,,0.00,Wunderground v.1.15,2013-07-27 08:45:00,
2013-07-27 03:50:00,75.3,69.8,29.92,North,9,4.0,4.0,83,0.00,,,0.00,Wunderground v.1.15,2013-07-27 08:50:00,
2013-07-27 03:55:00,75.3,69.8,29.92,North,360,4.0,7.0,83,0.00,,,0.00,Wunderground v.1.15,2013-07-27 08:55:00,
2013-07-27 04:00:00,75.4,69.9,29.92,NNE,13,5.0,7.0,83,0.00,,,0.00,Wunderground v.1.15,2013-07-27 09:00:00,
2013-07-27 04:10:00,75.4,69.9,29.91,North,9,7.0,8.0,83,0.00,,,0.00,Wunderground v.1.15,2013-07-27 09:10:00,
2013-07-27 04:20:00,75.3,69.8,29.92,North,5,4.0,8.0,83,0.00,,,0.00,Wunderground v.1.15,2013-07-27 09:20:00,
2013-07-27 04:25:00,75.2,69.3,29.92,North,355,6.0,10.0,82,0.00,,,0.00,Wunderground v.1.15,2013-07-27 09:25:00,
2013-07-27 04:30:00,75.1,69.2,29.92,North,360,8.0,9.0,82,0.00,,,0.00,Wunderground v.1.15,2013-07-27 09:30:00,
2013-07-27 04:35:00,75.0,69.1,29.92,North,9,7.0,9.0,82,0.00,,,0.00,Wunderground v.1.15,2013-07-27 09:35:00,
2013-07-27 04:40:00,74.9,69.0,29.92,North,9,8.0,8.0,82,0.00,,,0.00,Wunderground v.1.15,2013-07-27 09:40:00,
2013-07-27 04:50:00,74.7,68.8,29.92,North,5,8.0,9.0,82,0.00,,,0.00,Wunderground v.1.15,2013-07-27 09:50:00,
2013-07-27 04:55:00,74.5,68.6,29.92,NNE,14,8.0,9.0,82,0.00,,,0.00,Wunderground v.1.15,2013-07-27 09:55:00,
2013-07-27 05:00:00,74.5,68.6,29.92,NE,34,6.0,6.0,82,0.00,,,0.00,Wunderground v.1.15,2013-07-27 10:00:00,
2013-07-27 05:10:00,74.3,68.4,29.92,North,360,4.0,8.0,82,0.00,,,0.00,Wunderground v.1.15,2013-07-27 10:10:00,
2013-07-27 05:15:00,74.2,68.3,29.92,North,9,6.0,8.0,82,0.00,,,0.00,Wunderground v.1.15,2013-07-27 10:15:00,
2013-07-27 05:20:00,74.0,68.2,29.92,NNE,12,8.0,10.0,82,0.00,,,0.00,Wunderground v.1.15,2013-07-27 10:20:00,
2013-07-27 05:30:00,73.8,68.0,29.92,North,9,6.0,7.0,82,0.00,,,0.00,Wunderground v.1.15,2013-07-27 10:30:00,
2013-07-27 05:35:00,73.6,67.8,29.92,NE,41,6.0,8.0,82,0.00,,,0.00,Wunderground v.1.15,2013-07-27 10:35:00,
2013-07-27 05:40:00,73.6,67.8,29.92,North,5,7.0,9.0,82,0.00,,,0.00,Wunderground v.1.15,2013-07-27 10:40:00,
2013-07-27 05:45:00,73.5,67.7,29.92,North,9,8.0,9.0,82,0.00,,,0.00,Wunderground v.1.15,2013-07-27 10:45:00,
2013-07-27 05:50:00,73.6,67.8,29.92,NNE,16,7.0,7.0,82,0.00,,,0.00,Wunderground v.1.15,2013-07-27 10:50:00,
2013-07-27 06:00:00,73.7,67.9,29.92,NE,36,6.0,6.0,82,0.00,,,0.00,Wunderground v.1.15,2013-07-27 11:00:00,
2013-07-27 06:10:00,73.7,67.9,29.93,NNE,22,5.0,5.0,82,0.00,,,0.00,Wunderground v.1.15,2013-07-27 11:10:00,
2013-07-27 06:15:00,73.7,67.9,29.93,NNE,21,4.0,5.0,82,0.00,,,0.00,Wunderground v.1.15,2013-07-27 11:15:00,
2013-07-27 06:20:00,73.7,67.9,29.93,NNE,27,5.0,5.0,82,0.00,,,0.00,Wunderground v.1.15,2013-07-27 11:20:00,
2013-07-27 06:25:00,73.7,67.9,29.93,NNE,28,6.0,6.0,82,0.00,,,0.00,Wunderground v.1.15,2013-07-27 11:25:00,
2013-07-27 06:30:00,73.7,67.9,29.93,NNE,12,6.0,6.0,82,0.00,,,0.00,Wunderground v.1.15,2013-07-27 11:30:00,
2013-07-27 06:35:00,73.6,67.8,29.93,NE,46,6.0,6.0,82,0.00,,,0.00,Wunderground v.1.15,2013-07-27 11:35:00,
2013-07-27 06:45:00,73.4,67.9,29.94,NNE,21,4.0,5.0,83,0.00,,,0.00,Wunderground v.1.15,2013-07-27 11:45:00,
2013-07-27 06:50:00,73.4,67.9,29.94,NNE,22,4.0,11.0,83,0.00,,,0.00,Wunderground v.1.15,2013-07-27 11:50:00,
2013-07-27 06:55:00,73.4,67.9,29.94,NE,34,4.0,11.0,83,0.00,,,0.00,Wunderground v.1.15,2013-07-27 11:55:00,
2013-07-27 07:00:00,73.5,68.0,29.95,NNE,26,6.0,14.0,83,0.00,,,0.00,Wunderground v.1.15,2013-07-27 12:00:00,
2013-07-27 07:10:00,73.5,68.0,29.95,NNE,30,7.0,12.0,83,0.00,,,0.00,Wunderground v.1.15,2013-07-27 12:10:00,
2013-07-27 07:15:00,73.5,68.0,29.95,NE,35,6.0,12.0,83,0.00,,,0.00,Wunderground v.1.15,2013-07-27 12:15:00,
2013-07-27 07:20:00,73.5,67.7,29.95,NNE,13,4.0,8.0,82,0.00,,,0.00,Wunderground v.1.15,2013-07-27 12:20:00,
2013-07-27 07:25:00,73.5,67.7,29.95,NNE,28,4.0,8.0,82,0.00,,,0.00,Wunderground v.1.15,2013-07-27 12:25:00,
2013-07-27 07:35:00,73.7,67.5,29.96,NE,35,5.0,9.0,81,0.00,,,0.00,Wunderground v.1.15,2013-07-27 12:35:00,
2013-07-27 07:40:00,73.7,67.5,29.96,NE,42,5.0,6.0,81,0.00,,,0.00,Wunderground v.1.15,2013-07-27 12:40:00,
2013-07-27 07:45:00,73.8,67.6,29.96,NE,35,7.0,10.0,81,0.00,,,0.00,Wunderground v.1.15,2013-07-27 12:45:00,
2013-07-27 07:55:00,73.8,66.9,29.97,NNE,28,7.0,12.0,79,0.00,,,0.00,Wunderground v.1.15,2013-07-27 12:55:00,
2013-07-27 08:00:00,73.8,66.9,29.97,North,9,7.0,7.0,79,0.00,,,0.00,Wunderground v.1.15,2013-07-27 13:00:00,
2013-07-27 08:10:00,74.0,67.1,29.97,ENE,57,6.0,6.0,79,0.00,,,0.00,Wunderground v.1.15,2013-07-27 13:10:00,
2013-07-27 08:15:00,74.1,66.8,29.97,ENE,66,7.0,14.0,78,0.00,,,0.00,Wunderground v.1.15,2013-07-27 13:15:00,
2013-07-27 08:20:00,74.2,66.5,29.97,NE,51,8.0,8.0,77,0.00,,,0.00,Wunderground v.1.15,2013-07-27 13:20:00,
2013-07-27 08:25:00,74.2,66.9,29.97,NNE,28,9.0,11.0,78,0.00,,,0.00,Wunderground v.1.15,2013-07-27 13:25:00,
2013-07-27 08:30:00,74.2,66.9,29.97,North,5,6.0,6.0,78,0.00,,,0.00,Wunderground v.1.15,2013-07-27 13:30:00,
2013-07-27 08:40:00,74.2,66.9,29.97,NNE,26,5.0,5.0,78,0.00,,,0.00,Wunderground v.1.15,2013-07-27 13:40:00,
2013-07-27 08:45:00,74.2,66.9,29.97,NE,34,6.0,13.0,78,0.00,,,0.00,Wunderground v.1.15,2013-07-27 13:45:00,
2013-07-27 08:50:00,74.1,67.2,29.98,NNE,26,6.0,6.0,79,0.00,,,0.00,Wunderground v.1.15,2013-07-27 13:50:00,
2013-07-27 08:55:00,74.1,66.8,29.98,NE,48,6.0,6.0,78,0.00,,,0.00,Wunderground v.1.15,2013-07-27 13:55:00,
2013-07-27 09:00:00,74.1,66.8,29.97,NNE,30,8.0,8.0,78,0.00,,,0.00,Wunderground v.1.15,2013-07-27 14:00:00,
2013-07-27 09:10:00,74.2,66.5,29.98,NE,40,8.0,8.0,77,0.00,,,0.00,Wunderground v.1.15,2013-07-27 14:10:00,
2013-07-27 09:15:00,74.3,66.6,29.97,NE,51,7.0,8.0,77,0.00,,,0.00,Wunderground v.1.15,2013-07-27 14:15:00,
2013-07-27 09:25:00,74.4,66.7,29.98,NE,44,6.0,6.0,77,0.00,,,0.00,Wunderground v.1.15,2013-07-27 14:25:00,
2013-07-27 09:30:00,74.4,66.3,29.98,NNE,33,7.0,7.0,76,0.00,,,0.00,Wunderground v.1.15,2013-07-27 14:30:00,
2013-07-27 09:35:00,74.6,66.9,29.98,NE,45,8.0,8.0,77,0.00,,,0.00,Wunderground v.1.15,2013-07-27 14:35:00,
2013-07-27 09:40:00,74.9,66.8,29.98,NE,36,6.0,6.0,76,0.00,,,0.00,Wunderground v.1.15,2013-07-27 14:40:00,
2013-07-27 09:50:00,76.6,68.1,29.97,ENE,57,4.0,7.0,75,0.00,,,0.00,Wunderground v.1.15,2013-07-27 14:50:00,
2013-07-27 09:55:00,77.0,67.7,29.98,NNE,26,3.0,7.0,73,0.00,,,0.00,Wunderground v.1.15,2013-07-27 14:55:00,
2013-07-27 10:00:00,77.5,68.6,29.98,North,355,4.0,9.0,74,0.00,,,0.00,Wunderground v.1.15,2013-07-27 15:00:00,
2013-07-27 10:10:00,78.4,68.6,29.98,ENE,70,6.0,6.0,72,0.00,,,0.00,Wunderground v.1.15,2013-07-27 15:10:00,
2013-07-27 10:15:00,79.1,69.3,29.98,NNE,15,4.0,6.0,72,0.00,,,0.00,Wunderground v.1.15,2013-07-27 15:15:00,
2013-07-27 10:20:00,79.7,69.0,29.98,NNW,345,5.0,5.0,70,0.00,,,0.00,Wunderground v.1.15,2013-07-27 15:20:00,
2013-07-27 10:30:00,80.5,69.0,29.97,NNW,342,4.0,8.0,68,0.00,,,0.00,Wunderground v.1.15,2013-07-27 15:30:00,
2013-07-27 10:35:00,80.7,69.2,29.97,NNW,343,4.0,8.0,68,0.00,,,0.00,Wunderground v.1.15,2013-07-27 15:35:00,
2013-07-27 10:40:00,81.3,68.4,29.98,NNE,17,5.0,9.0,65,0.00,,,0.00,Wunderground v.1.15,2013-07-27 15:40:00,
2013-07-27 10:45:00,81.9,69.4,29.97,NE,54,5.0,9.0,66,0.00,,,0.00,Wunderground v.1.15,2013-07-27 15:45:00,
2013-07-27 10:55:00,82.3,68.4,29.97,ENE,57,5.0,5.0,63,0.00,,,0.00,Wunderground v.1.15,2013-07-27 15:55:00,
2013-07-27 11:00:00,81.3,68.4,29.98,North,360,6.0,7.0,65,0.00,,,0.00,Wunderground v.1.15,2013-07-27 16:00:00,
2013-07-27 11:10:00,81.4,68.1,29.98,NNE,32,6.0,6.0,64,0.00,,,0.00,Wunderground v.1.15,2013-07-27 16:10:00,
2013-07-27 11:15:00,81.0,68.1,29.98,NNE,26,4.0,6.0,65,0.00,,,0.00,Wunderground v.1.15,2013-07-27 16:15:00,
2013-07-27 11:20:00,81.2,68.3,29.98,NNE,16,4.0,8.0,65,0.00,,,0.00,Wunderground v.1.15,2013-07-27 16:20:00,
2013-07-27 11:25:00,81.4,68.1,29.98,NNE,22,5.0,8.0,64,0.00,,,0.00,Wunderground v.1.15,2013-07-27 16:25:00,
2013-07-27 11:30:00,81.9,69.0,29.98,North,9,5.0,5.0,65,0.00,,,0.00,Wunderground v.1.15,2013-07-27 16:30:00,
2013-07-27 11:40:00,83.8,69.4,29.98,ENE,70,4.0,4.0,62,0.00,,,0.00,Wunderground v.1.15,2013-07-27 16:40:00,
2013-07-27 11:45:00,83.8,69.4,29.98,NNE,16,3.0,7.0,62,0.00,,,0.00,Wunderground v.1.15,2013-07-27 16:45:00,
2013-07-27 11:50:00,83.8,69.9,29.98,ENE,67,5.0,6.0,63,0.00,,,0.00,Wunderground v.1.15,2013-07-27 16:50:00,
2013-07-27 11:55:00,84.4,69.5,29.98,ENE,67,5.0,6.0,61,0.00,,,0.00,Wunderground v.1.15,2013-07-27 16:55:00,
2013-07-27 12:00:00,83.8,68.9,29.97,NNE,24,3.0,7.0,61,0.00,,,0.00,Wunderground v.1.15,2013-07-27 17:00:00,
2013-07-27 12:10:00,84.3,68.9,29.97,NNE,30,4.0,6.0,60,0.00,,,0.00,Wunderground v.1.15,2013-07-27 17:10:00,
2013-07-27 12:20:00,83.7,69.3,29.97,North,9,3.0,3.0,62,0.00,,,0.00,Wunderground v.1.15,2013-07-27 17:20:00,
2013-07-27 12:25:00,83.9,70.0,29.97,NE,55,1.0,3.0,63,0.00,,,0.00,Wunderground v.1.15,2013-07-27 17:25:00,
2013-07-27 12:30:00,84.6,69.2,29.97,ENE,61,3.0,3.0,60,0.00,,,0.00,Wunderground v.1.15,2013-07-27 17:30:00,
2013-07-27 12:35:00,84.5,69.1,29.97,NE,48,2.0,8.0,60,0.00,,,0.00,Wunderground v.1.15,2013-07-27 17:35:00,
2013-07-27 12:40:00,83.9,69.0,29.97,ENE,61,3.0,10.0,61,0.00,,,0.00,Wunderground v.1.15,2013-07-27 17:40:00,
2013-07-27 12:50:00,85.2,68.8,29.97,North,5,4.0,8.0,58,0.00,,,0.00,Wunderground v.1.15,2013-07-27 17:50:00,
2013-07-27 12:55:00,85.9,70.9,29.97,North,9,5.0,8.0,61,0.00,,,0.00,Wunderground v.1.15,2013-07-27 17:55:00,
2013-07-27 13:00:00,85.7,68.7,29.97,North,360,3.0,3.0,57,0.00,,,0.00,Wunderground v.1.15,2013-07-27 18:00:00,
2013-07-27 13:10:00,85.9,71.4,29.97,ENE,71,5.0,5.0,62,0.00,,,0.00,Wunderground v.1.15,2013-07-27 18:10:00,
2013-07-27 13:15:00,85.9,67.9,29.97,NNE,33,4.0,5.0,55,0.00,,,0.00,Wunderground v.1.15,2013-07-27 18:15:00,
2013-07-27 13:20:00,85.4,68.9,29.96,NE,39,4.0,8.0,58,0.00,,,0.00,Wunderground v.1.15,2013-07-27 18:20:00,
2013-07-27 13:30:00,86.3,69.8,29.96,ENE,69,6.0,6.0,58,0.00,,,0.00,Wunderground v.1.15,2013-07-27 18:30:00,
2013-07-27 13:35:00,87.2,69.1,29.96,NE,53,5.0,6.0,55,0.00,,,0.00,Wunderground v.1.15,2013-07-27 18:35:00,
2013-07-27 13:40:00,87.4,69.8,29.95,ENE,61,4.0,4.0,56,0.00,,,0.00,Wunderground v.1.15,2013-07-27 18:40:00,
2013-07-27 13:45:00,87.5,70.4,29.95,NE,56,4.0,6.0,57,0.00,,,0.00,Wunderground v.1.15,2013-07-27 18:45:00,
2013-07-27 13:50:00,87.7,69.5,29.95,ENE,63,4.0,6.0,55,0.00,,,0.00,Wunderground v.1.15,2013-07-27 18:50:00,
2013-07-27 14:00:00,88.0,69.3,29.95,ENE,75,6.0,6.0,54,0.00,,,0.00,Wunderground v.1.15,2013-07-27 19:00:00,
2013-07-27 14:10:00,87.9,68.1,29.95,NE,38,3.0,4.0,52,0.00,,,0.00,Wunderground v.1.15,2013-07-27 19:10:00,
2013-07-27 14:20:00,88.0,69.3,29.95,NE,42,4.0,4.0,54,0.00,,,0.00,Wunderground v.1.15,2013-07-27 19:20:00,
2013-07-27 14:25:00,88.3,68.4,29.95,NNE,28,3.0,6.0,52,0.00,,,0.00,Wunderground v.1.15,2013-07-27 19:25:00,
2013-07-27 14:30:00,88.5,69.2,29.95,NE,48,5.0,5.0,53,0.00,,,0.00,Wunderground v.1.15,2013-07-27 19:30:00,
2013-07-27 14:40:00,88.9,67.9,29.94,NE,49,6.0,6.0,50,0.00,,,0.00,Wunderground v.1.15,2013-07-27 19:40:00,
2013-07-27 14:45:00,89.4,68.3,29.94,ENE,59,6.0,12.0,50,0.00,,,0.00,Wunderground v.1.15,2013-07-27 19:45:00,
2013-07-27 14:50:00,88.9,67.3,29.94,ENE,72,7.0,7.0,49,0.00,,,0.00,Wunderground v.1.15,2013-07-27 19:50:00,
2013-07-27 14:55:00,88.9,69.0,29.94,ENE,71,6.0,7.0,52,0.00,,,0.00,Wunderground v.1.15,2013-07-27 19:55:00,
2013-07-27 15:00:00,89.0,67.9,29.93,NE,51,4.0,6.0,50,0.00,,,0.00,Wunderground v.1.15,2013-07-27 20:00:00,
2013-07-27 15:10:00,89.6,67.9,29.93,NE,48,5.0,5.0,49,0.00,,,0.00,Wunderground v.1.15,2013-07-27 20:10:00,
2013-07-27 15:20:00,89.7,68.6,29.93,ENE,74,6.0,8.0,50,0.00,,,0.00,Wunderground v.1.15,2013-07-27 20:20:00,
2013-07-27 15:25:00,89.7,67.4,29.93,ENE,59,7.0,10.0,48,0.00,,,0.00,Wunderground v.1.15,2013-07-27 20:25:00,
2013-07-27 15:30:00,89.7,67.4,29.93,East,89,6.0,7.0,48,0.00,,,0.00,Wunderground v.1.15,2013-07-27 20:30:00,
2013-07-27 15:35:00,90.0,66.4,29.93,ENE,66,8.0,8.0,46,0.00,,,0.00,Wunderground v.1.15,2013-07-27 20:35:00,
2013-07-27 15:40:00,90.0,67.7,29.92,East,84,7.0,7.0,48,0.00,,,0.00,Wunderground v.1.15,2013-07-27 20:40:00,
2013-07-27 15:50:00,90.1,67.2,29.92,NE,52,7.0,10.0,47,0.00,,,0.00,Wunderground v.1.15,2013-07-27 20:50:00,
2013-07-27 15:55:00,90.2,66.6,29.92,East,85,7.0,10.0,46,0.00,,,0.00,Wunderground v.1.15,2013-07-27 20:55:00,
2013-07-27 16:00:00,90.2,67.2,29.92,East,84,7.0,8.0,47,0.00,,,0.00,Wunderground v.1.15,2013-07-27 21:00:00,
2013-07-27 16:10:00,90.7,66.4,29.91,NNE,20,6.0,6.0,45,0.00,,,0.00,Wunderground v.1.15,2013-07-27 21:10:00,
2013-07-27 16:15:00,90.9,67.9,29.91,NNE,21,5.0,9.0,47,0.00,,,0.00,Wunderground v.1.15,2013-07-27 21:15:00,
2013-07-27 16:25:00,90.8,66.5,29.91,NE,53,7.0,7.0,45,0.00,,,0.00,Wunderground v.1.15,2013-07-27 21:25:00,
2013-07-27 16:30:00,90.9,66.6,29.91,East,84,6.0,10.0,45,0.00,,,0.00,Wunderground v.1.15,2013-07-27 21:30:00,
2013-07-27 16:35:00,91.0,66.7,29.90,ENE,64,6.0,10.0,45,0.00,,,0.00,Wunderground v.1.15,2013-07-27 21:35:00,
2013-07-27 16:45:00,90.8,65.2,29.91,NE,40,5.0,8.0,43,0.00,,,0.00,Wunderground v.1.15,2013-07-27 21:45:00,
2013-07-27 16:50:00,90.9,64.6,29.91,NE,39,6.0,9.0,42,0.00,,,0.00,Wunderground v.1.15,2013-07-27 21:50:00,
2013-07-27 16:55:00,90.9,66.0,29.90,ENE,69,6.0,9.0,44,0.00,,,0.00,Wunderground v.1.15,2013-07-27 21:55:00,
2013-07-27 17:00:00,91.2,67.5,29.90,East,85,5.0,7.0,46,0.00,,,0.00,Wunderground v.1.15,2013-07-27 22:00:00,
2013-07-27 17:10:00,91.7,68.0,29.90,ENE,65,3.0,4.0,46,0.00,,,0.00,Wunderground v.1.15,2013-07-27 22:10:00,
2013-07-27 17:15:00,92.0,67.0,29.90,NE,55,4.0,4.0,44,0.00,,,0.00,Wunderground v.1.15,2013-07-27 22:15:00,
2013-07-27 17:20:00,92.0,65.6,29.89,East,86,5.0,6.0,42,0.00,,,0.00,Wunderground v.1.15,2013-07-27 22:20:00,
2013-07-27 17:25:00,91.9,66.2,29.90,ESE,103,6.0,12.0,43,0.00,,,0.00,Wunderground v.1.15,2013-07-27 22:25:00,
2013-07-27 17:30:00,91.8,65.4,29.90,ENE,77,7.0,7.0,42,0.00,,,0.00,Wunderground v.1.15,2013-07-27 22:30:00,
2013-07-27 17:35:00,91.7,66.0,29.89,ENE,58,6.0,7.0,43,0.00,,,0.00,Wunderground v.1.15,2013-07-27 22:35:00,
2013-07-27 17:45:00,91.8,65.4,29.89,ENE,67,4.0,4.0,42,0.00,,,0.00,Wunderground v.1.15,2013-07-27 22:45:00,
2013-07-27 17:50:00,91.8,64.7,29.89,ENE,64,5.0,5.0,41,0.00,,,0.00,Wunderground v.1.15,2013-07-27 22:50:00,
2013-07-27 17:55:00,91.6,65.3,29.89,ENE,59,5.0,5.0,42,0.00,,,0.00,Wunderground v.1.15,2013-07-27 22:55:00,
2013-07-27 18:00:00,91.6,64.6,29.88,ESE,103,5.0,5.0,41,0.00,,,0.00,Wunderground v.1.15,2013-07-27 23:00:00,
2013-07-27 18:10:00,91.5,63.8,29.89,ENE,69,6.0,6.0,40,0.00,,,0.00,Wunderground v.1.15,2013-07-27 23:10:00,
2013-07-27 18:15:00,91.6,65.3,29.88,East,94,5.0,7.0,42,0.00,,,0.00,Wunderground v.1.15,2013-07-27 23:15:00,
2013-07-27 18:20:00,91.7,64.7,29.88,East,101,5.0,7.0,41,0.00,,,0.00,Wunderground v.1.15,2013-07-27 23:20:00,
2013-07-27 18:25:00,91.7,64.7,29.88,East,88,6.0,7.0,41,0.00,,,0.00,Wunderground v.1.15,2013-07-27 23:25:00,
2013-07-27 18:35:00,91.3,64.3,29.88,East,85,5.0,10.0,41,0.00,,,0.00,Wunderground v.1.15,2013-07-27 23:35:00,
2013-07-27 18:40:00,91.0,63.3,29.88,ENE,73,5.0,5.0,40,0.00,,,0.00,Wunderground v.1.15,2013-07-27 23:40:00,
2013-07-27 18:45:00,90.9,63.9,29.87,East,94,5.0,5.0,41,0.00,,,0.00,Wunderground v.1.15,2013-07-27 23:45:00,
2013-07-27 18:50:00,90.8,63.1,29.87,East,91,4.0,4.0,40,0.00,,,0.00,Wunderground v.1.15,2013-07-27 23:50:00,
2013-07-27 19:00:00,90.7,64.5,29.86,ESE,105,4.0,7.0,42,0.00,,,0.00,Wunderground v.1.15,2013-07-28 00:00:00,
2013-07-27 19:10:00,90.1,64.6,29.86,East,95,5.0,5.0,43,0.00,,,0.00,Wunderground v.1.15,2013-07-28 00:10:00,
2013-07-27 19:15:00,89.9,65.1,29.86,East,95,3.0,5.0,44,0.00,,,0.00,Wunderground v.1.15,2013-07-28 00:15:00,
2013-07-27 19:20:00,89.6,64.8,29.86,ENE,77,2.0,4.0,44,0.00,,,0.00,Wunderground v.1.15,2013-07-28 00:20:00,
2013-07-27 19:25:00,89.2,65.1,29.86,ENE,77,2.0,4.0,45,0.00,,,0.00,Wunderground v.1.15,2013-07-28 00:25:00,
2013-07-27 19:30:00,88.8,64.1,29.86,ENE,78,2.0,3.0,44,0.00,,,0.00,Wunderground v.1.15,2013-07-28 00:30:00,
2013-07-27 19:40:00,87.7,64.4,29.86,East,90,3.0,5.0,46,0.00,,,0.00,Wunderground v.1.15,2013-07-28 00:40:00,
2013-07-27 19:45:00,87.2,63.9,29.86,ENE,67,3.0,6.0,46,0.00,,,0.00,Wunderground v.1.15,2013-07-28 00:45:00,
2013-07-27 19:50:00,86.7,63.4,29.86,East,86,4.0,4.0,46,0.00,,,0.00,Wunderground v.1.15,2013-07-28 00:50:00,
2013-07-27 19:55:00,86.4,63.8,29.86,East,85,3.0,4.0,47,0.00,,,0.00,Wunderground v.1.15,2013-07-28 00:55:00,
2013-07-27 20:00:00,86.0,64.0,29.86,East,85,3.0,5.0,48,0.00,,,0.00,Wunderground v.1.15,2013-07-28 01:00:00,
2013-07-27 20:10:00,85.3,64.0,29.86,East,85,1.0,6.0,49,0.00,,,0.00,Wunderground v.1.15,2013-07-28 01:10:00,
2013-07-27 20:15:00,85.0,64.3,29.86,East,85,1.0,6.0,50,0.00,,,0.00,Wunderground v.1.15,2013-07-28 01:15:00,
2013-07-27 20:25:00,84.3,64.2,29.86,East,85,1.0,2.0,51,0.00,,,0.00,Wunderground v.1.15,2013-07-28 01:25:00,
2013-07-27 20:30:00,84.0,63.9,29.86,East,85,0.0,0.0,51,0.00,,,0.00,Wunderground v.1.15,2013-07-28 01:30:00,
2013-07-27 20:35:00,83.6,63.6,29.86,East,85,0.0,0.0,51,0.00,,,0.00,Wunderground v.1.15,2013-07-28 01:35:00,
2013-07-27 20:40:00,83.2,63.2,29.87,East,85,0.0,0.0,51,0.00,,,0.00,Wunderground v.1.15,2013-07-28 01:40:00,
2013-07-27 20:50:00,82.6,63.7,29.87,East,85,0.0,0.0,53,0.00,,,0.00,Wunderground v.1.15,2013-07-28 01:50:00,
2013-07-27 20:55:00,82.2,63.4,29.87,East,85,0.0,0.0,53,0.00,,,0.00,Wunderground v.1.15,2013-07-28 01:55:00,
2013-07-27 21:00:00,81.9,63.6,29.87,East,85,0.0,0.0,54,0.00,,,0.00,Wunderground v.1.15,2013-07-28 02:00:00,
2013-07-27 21:10:00,81.4,63.2,29.88,East,85,0.0,0.0,54,0.00,,,0.00,Wunderground v.1.15,2013-07-28 02:10:00,
2013-07-27 21:15:00,81.2,63.5,29.88,East,85,0.0,0.0,55,0.00,,,0.00,Wunderground v.1.15,2013-07-28 02:15:00,
2013-07-27 21:20:00,80.9,63.2,29.88,East,85,0.0,0.0,55,0.00,,,0.00,Wunderground v.1.15,2013-07-28 02:20:00,
2013-07-27 21:30:00,80.6,64.5,29.89,East,90,2.0,2.0,58,0.00,,,0.00,Wunderground v.1.15,2013-07-28 02:30:00,
2013-07-27 21:35:00,80.5,64.9,29.89,East,90,1.0,2.0,59,0.00,,,0.00,Wunderground v.1.15,2013-07-28 02:35:00,
2013-07-27 21:40:00,80.4,65.2,29.89,East,90,0.0,0.0,60,0.00,,,0.00,Wunderground v.1.15,2013-07-28 02:40:00,
2013-07-27 21:50:00,80.0,65.8,29.90,East,90,0.0,0.0,62,0.00,,,0.00,Wunderground v.1.15,2013-07-28 02:50:00,
2013-07-27 21:55:00,79.7,66.0,29.90,East,90,0.0,0.0,63,0.00,,,0.00,Wunderground v.1.15,2013-07-28 02:55:00,
2013-07-27 22:00:00,79.4,66.2,29.91,East,90,0.0,0.0,64,0.00,,,0.00,Wunderground v.1.15,2013-07-28 03:00:00,
2013-07-27 22:10:00,79.1,66.8,29.91,East,91,1.0,1.0,66,0.00,,,0.00,Wunderground v.1.15,2013-07-28 03:10:00,
2013-07-27 22:15:00,78.9,67.0,29.92,East,93,1.0,5.0,67,0.00,,,0.00,Wunderground v.1.15,2013-07-28 03:15:00,
2013-07-27 22:20:00,78.7,66.8,29.92,East,93,1.0,1.0,67,0.00,,,0.00,Wunderground v.1.15,2013-07-28 03:20:00,
2013-07-27 22:25:00,78.6,66.7,29.92,East,93,0.0,1.0,67,0.00,,,0.00,Wunderground v.1.15,2013-07-28 03:25:00,
2013-07-27 22:35:00,78.2,66.8,29.92,East,94,0.0,1.0,68,0.00,,,0.00,Wunderground v.1.15,2013-07-28 03:35:00,
2013-07-27 22:40:00,78.1,66.7,29.92,East,98,1.0,5.0,68,0.00,,,0.00,Wunderground v.1.15,2013-07-28 03:40:00,
2013-07-27 22:45:00,77.9,66.5,29.93,East,98,1.0,5.0,68,0.00,,,0.00,Wunderground v.1.15,2013-07-28 03:45:00,
2013-07-27 22:50:00,77.8,66.4,29.92,East,98,1.0,1.0,68,0.00,,,0.00,Wunderground v.1.15,2013-07-28 03:50:00,
2013-07-27 22:55:00,77.7,66.7,29.93,ESE,105,1.0,1.0,69,0.00,,,0.00,Wunderground v.1.15,2013-07-28 03:55:00,
2013-07-27 23:00:00,77.5,66.5,29.93,ESE,117,2.0,2.0,69,0.00,,,0.00,Wunderground v.1.15,2013-07-28 04:00:00,
2013-07-27 23:05:00,77.4,66.4,29.93,ESE,117,1.0,2.0,69,0.00,,,0.00,Wunderground v.1.15,2013-07-28 04:05:00,
2013-07-27 23:10:00,77.3,66.3,29.93,ESE,117,0.0,0.0,69,0.00,,,0.00,Wunderground v.1.15,2013-07-28 04:10:00,
2013-07-27 23:15:00,77.2,66.2,29.93,ESE,117,0.0,0.0,69,0.00,,,0.00,Wunderground v.1.15,2013-07-28 04:15:00,
2013-07-27 23:20:00,77.1,66.1,29.93,ESE,117,0.0,0.0,69,0.00,,,0.00,Wunderground v.1.15,2013-07-28 04:20:00,
2013-07-27 23:25:00,77.0,66.5,29.93,ESE,121,1.0,4.0,70,0.00,,,0.00,Wunderground v.1.15,2013-07-28 04:25:00,
2013-07-27 23:30:00,76.8,66.3,29.93,ESE,121,1.0,1.0,70,0.00,,,0.00,Wunderground v.1.15,2013-07-28 04:30:00,
2013-07-27 23:35:00,76.6,66.5,29.93,ESE,121,0.0,1.0,71,0.00,,,0.00,Wunderground v.1.15,2013-07-28 04:35:00,
2013-07-27 23:45:00,76.3,66.2,29.93,ESE,121,0.0,0.0,71,0.00,,,0.00,Wunderground v.1.15,2013-07-28 04:45:00,
2013-07-27 23:50:00,76.1,66.4,29.93,ESE,121,0.0,0.0,72,0.00,,,0.00,Wunderground v.1.15,2013-07-28 04:50:00,
2013-07-27 23:55:00,76.0,66.3,29.93,ESE,121,0.0,0.0,72,0.00,,,0.00,Wunderground v.1.15,2013-07-28 04:55:00,